createdAt,value
2022-11-01T00:01:40.790Z,6.03
2022-11-01T00:04:08.829Z,6.80
2022-11-01T00:06:36.174Z,5.60
2022-11-01T00:09:03.744Z,6.03
2022-11-01T00:11:32.543Z,6.25
2022-11-01T00:13:59.537Z,6.53
2022-11-01T00:16:26.751Z,6.25
2022-11-01T00:18:54.096Z,6.72
2022-11-01T00:21:21.437Z,6.85
2022-11-01T00:23:48.962Z,7.07
2022-11-01T00:26:19.182Z,5.88
2022-11-01T00:28:48.225Z,6.77
2022-11-01T00:31:17.370Z,6.70
2022-11-01T00:41:06.161Z,5.80
2022-11-01T00:43:34.182Z,7.20
2022-11-01T00:46:03.444Z,8.05
2022-11-01T00:48:30.813Z,6.88
2022-11-01T00:50:57.904Z,8.10
2022-11-01T00:53:25.110Z,7.72
2022-11-01T00:55:52.365Z,7.32
2022-11-01T00:58:19.514Z,7.95
2022-11-01T01:13:04.163Z,6.63
2022-11-01T01:15:31.582Z,6.85
2022-11-01T01:17:59.043Z,6.95
2022-11-01T01:20:27.686Z,6.95
2022-11-01T01:22:55.014Z,6.78
2022-11-01T01:25:22.601Z,6.60
2022-11-01T01:27:49.835Z,6.80
2022-11-01T01:30:17.318Z,6.85
2022-11-01T01:32:44.307Z,6.78
2022-11-01T01:35:11.417Z,6.80
2022-11-01T01:37:39.923Z,6.82
2022-11-01T01:40:09.093Z,6.88
2022-11-01T01:42:38.393Z,6.30
2022-11-01T01:45:35.397Z,6.70
2022-11-01T01:48:12.919Z,6.75
2022-11-01T01:50:46.060Z,5.88
2022-11-01T01:53:19.966Z,6.53
2022-11-01T01:55:53.138Z,6.78
2022-11-01T01:58:22.670Z,6.72
2022-11-01T02:00:50.232Z,6.13
2022-11-01T02:03:17.556Z,7.05
2022-11-01T02:05:50.921Z,6.80
2022-11-01T02:08:27.682Z,6.70
2022-11-01T02:10:57.082Z,6.57
2022-11-01T02:13:24.281Z,6.43
2022-11-01T02:16:18.793Z,6.38
2022-11-01T02:18:49.130Z,6.03
2022-11-01T02:21:55.515Z,5.60
2022-11-01T02:24:52.267Z,6.50
2022-11-01T02:27:24.945Z,5.60
2022-11-01T02:30:10.705Z,6.22
2022-11-01T02:33:11.311Z,5.82
2022-11-01T02:35:47.951Z,5.67
2022-11-01T02:38:21.272Z,6.13
2022-11-01T02:40:56.874Z,5.32
2022-11-01T02:43:30.809Z,5.43
2022-11-01T02:45:58.797Z,5.15
2022-11-01T02:48:27.303Z,5.18
2022-11-01T02:50:57.330Z,5.53
2022-11-01T05:29:47.289Z,1.10
2022-11-01T05:32:14.326Z,0.60
2022-11-01T09:01:19.581Z,2.30
2022-11-01T09:03:48.328Z,2.20
2022-11-01T09:08:42.867Z,2.05
2022-11-01T09:11:10.357Z,2.03
2022-11-01T09:26:02.100Z,2.10
2022-11-01T09:28:33.731Z,2.20
2022-11-01T09:31:19.405Z,2.08
2022-11-01T09:33:48.261Z,1.83
2022-11-01T09:36:16.897Z,2.20
2022-11-01T09:38:44.011Z,1.77
2022-11-01T09:41:24.744Z,2.50
2022-11-01T09:43:53.454Z,2.20
2022-11-01T09:48:52.597Z,1.88
2022-11-01T09:51:23.665Z,2.53
2022-11-01T09:53:55.196Z,2.30
2022-11-01T09:56:30.247Z,2.00
2022-11-01T09:59:04.368Z,2.42
2022-11-01T10:06:56.071Z,2.43
2022-11-01T10:22:15.047Z,1.85
2022-11-01T10:24:47.951Z,2.20
2022-11-01T10:27:22.550Z,1.90
2022-11-01T10:29:58.033Z,1.80
2022-11-01T10:32:31.730Z,1.75
2022-11-01T10:35:03.755Z,1.70
2022-11-01T10:37:43.738Z,2.10
2022-11-01T10:47:56.377Z,2.30
2022-11-01T10:50:31.575Z,1.92
2022-11-01T10:53:01.867Z,2.30
2022-11-01T10:58:03.207Z,2.40
2022-11-01T11:05:29.702Z,2.22
2022-11-01T11:07:57.614Z,2.17
2022-11-01T11:10:28.193Z,1.80
2022-11-01T11:13:01.619Z,2.10
2022-11-01T11:23:02.809Z,2.00
2022-11-01T11:32:59.098Z,1.67
2022-11-01T11:35:28.405Z,1.92
2022-11-01T11:37:57.665Z,2.33
2022-11-01T11:40:26.015Z,1.70
2022-11-01T11:42:55.502Z,2.28
2022-11-01T11:45:27.664Z,2.28
2022-11-01T11:47:55.957Z,1.80
2022-11-01T11:50:37.889Z,1.83
2022-11-01T11:53:13.331Z,1.42
2022-11-01T11:55:46.722Z,1.83
2022-11-01T11:58:25.527Z,1.70
2022-11-01T12:00:59.011Z,1.90
2022-11-01T12:03:27.382Z,1.52
2022-11-01T12:05:59.752Z,1.80
2022-11-01T12:08:37.922Z,1.90
2022-11-01T12:11:05.534Z,1.50
2022-11-01T12:16:16.417Z,2.00
2022-11-01T12:18:54.854Z,1.60
2022-11-01T12:21:27.283Z,1.77
2022-11-01T12:24:00.255Z,2.20
2022-11-01T12:26:30.722Z,1.60
2022-11-01T12:29:04.888Z,1.60
2022-11-01T12:31:32.443Z,1.90
2022-11-01T12:34:06.477Z,1.98
2022-11-01T12:36:44.049Z,1.38
2022-11-01T12:39:27.483Z,1.90
2022-11-01T12:41:59.427Z,1.27
2022-11-01T12:44:35.269Z,1.13
2022-11-01T12:47:10.854Z,1.63
2022-11-01T12:49:45.284Z,1.20
2022-11-01T12:52:21.029Z,2.05
2022-11-01T12:54:56.773Z,1.70
2022-11-01T12:57:23.892Z,1.65
2022-11-01T12:59:51.715Z,1.88
2022-11-01T13:02:46.347Z,1.30
2022-11-01T13:12:58.599Z,1.73
2022-11-01T13:15:32.443Z,1.70
2022-11-01T13:18:07.727Z,1.05
2022-11-01T13:20:44.073Z,1.60
2022-11-01T13:23:19.412Z,1.20
2022-11-01T13:25:55.007Z,1.20
2022-11-01T13:36:02.919Z,1.83
2022-11-01T13:38:38.809Z,1.10
2022-11-01T13:41:19.665Z,1.60
2022-11-01T13:43:51.648Z,1.40
2022-11-01T13:46:51.162Z,1.20
2022-11-01T13:50:07.443Z,1.10
2022-11-01T14:00:38.791Z,1.20
2022-11-01T14:08:37.972Z,1.70
2022-11-01T14:11:07.584Z,0.80
2022-11-01T14:13:37.168Z,0.98
2022-11-01T14:16:20.712Z,1.08
2022-11-01T14:19:19.170Z,1.27
2022-11-01T14:21:49.875Z,1.40
2022-11-01T14:24:30.704Z,1.25
2022-11-01T14:47:31.816Z,1.70
2022-11-01T15:00:18.154Z,1.60
2022-11-01T15:02:45.364Z,1.40
2022-11-01T15:05:16.750Z,1.83
2022-11-01T15:12:48.635Z,1.23
2022-11-01T15:15:19.423Z,1.10
2022-11-01T15:17:52.598Z,1.15
2022-11-01T15:20:20.952Z,1.60
2022-11-01T15:55:28.018Z,1.48
2022-11-01T15:58:01.593Z,1.05
2022-11-01T16:00:34.371Z,1.30
2022-11-01T16:03:06.228Z,1.65
2022-11-01T16:05:36.940Z,1.55
2022-11-01T16:08:07.360Z,1.40
2022-11-01T16:10:35.228Z,1.40
2022-11-01T16:13:05.071Z,1.73
2022-11-01T16:15:34.235Z,1.17
2022-11-01T16:35:48.141Z,1.55
2022-11-01T16:45:46.126Z,2.17
2022-11-01T16:48:22.691Z,1.60
2022-11-01T16:50:50.532Z,1.75
2022-11-01T16:55:45.104Z,1.90
2022-11-01T16:58:16.895Z,1.80
2022-11-01T17:00:53.540Z,1.55
2022-11-01T17:18:18.259Z,1.63
2022-11-01T17:35:35.324Z,1.63
2022-11-01T17:38:02.728Z,3.03
2022-11-01T17:40:33.600Z,2.47
2022-11-01T17:43:00.870Z,2.05
2022-11-01T17:45:28.287Z,1.42
2022-11-01T17:47:55.867Z,2.17
2022-11-01T17:50:24.572Z,2.00
2022-11-01T17:52:51.792Z,1.75
2022-11-01T17:55:19.077Z,3.10
2022-11-01T18:07:41.406Z,1.70
2022-11-01T18:15:26.192Z,2.65
2022-11-01T18:18:04.051Z,1.85
2022-11-01T18:20:43.033Z,2.25
2022-11-01T18:23:14.851Z,2.40
2022-11-01T18:25:45.228Z,2.15
2022-11-01T18:30:47.027Z,2.17
2022-11-01T18:33:23.477Z,2.10
2022-11-01T18:35:55.050Z,2.08
2022-11-01T18:48:37.511Z,1.70
2022-11-01T18:51:13.113Z,2.58
2022-11-01T18:53:41.917Z,2.42
2022-11-01T18:56:19.487Z,1.75
2022-11-01T18:58:46.732Z,2.40
2022-11-01T19:01:17.753Z,2.20
2022-11-01T19:03:45.937Z,2.25
2022-11-01T19:08:52.288Z,1.88
2022-11-01T19:11:19.872Z,2.70
2022-11-01T19:13:49.498Z,2.35
2022-11-01T19:16:18.948Z,2.17
2022-11-01T19:18:47.029Z,2.45
2022-11-01T19:21:16.289Z,2.90
2022-11-01T19:23:45.965Z,2.00
2022-11-01T19:34:06.129Z,1.98
2022-11-01T19:36:40.717Z,2.65
2022-11-01T19:39:23.669Z,2.00
2022-11-01T19:41:54.970Z,2.00
2022-11-01T19:44:24.437Z,2.53
2022-11-01T19:46:55.225Z,1.90
2022-11-01T19:49:25.535Z,1.95
2022-11-01T19:52:20.978Z,1.70
2022-11-01T19:54:51.217Z,2.35
2022-11-01T20:10:15.064Z,2.20
2022-11-01T20:12:44.956Z,1.80
2022-11-01T20:15:12.505Z,2.55
2022-11-01T20:17:39.539Z,2.33
2022-11-01T20:20:07.632Z,1.98
2022-11-01T20:22:35.261Z,2.08
2022-11-01T20:25:02.883Z,2.42
2022-11-01T20:34:54.029Z,2.00
2022-11-01T20:37:28.583Z,2.05
2022-11-01T20:39:55.837Z,2.10
2022-11-01T20:42:22.888Z,2.75
2022-11-01T20:44:50.153Z,2.85
2022-11-01T20:49:45.568Z,2.85
2022-11-01T20:54:59.959Z,3.20
2022-11-01T20:58:59.393Z,2.60
2022-11-01T21:01:27.249Z,2.00
2022-11-01T21:03:54.805Z,2.00
2022-11-01T21:06:24.597Z,2.08
2022-11-01T21:08:51.628Z,2.00
2022-11-01T21:11:23.352Z,2.05
2022-11-01T21:13:51.834Z,1.90
2022-11-01T21:18:53.768Z,2.03
2022-11-01T21:36:28.083Z,1.10
2022-11-01T21:38:57.358Z,0.90
2022-11-01T21:41:29.021Z,1.15
2022-11-01T21:43:56.394Z,0.85
2022-11-01T21:46:27.945Z,0.68
2022-11-01T21:48:59.186Z,0.82
2022-11-01T23:03:20.926Z,2.90
2022-11-01T23:05:51.495Z,2.95
2022-11-01T23:08:25.555Z,3.28
2022-11-01T23:10:54.449Z,3.45
2022-11-01T23:13:44.477Z,2.70
2022-11-01T23:16:23.525Z,2.90
2022-11-01T23:56:12.296Z,2.47
2022-11-01T23:58:39.313Z,2.63
